Weather observations for the past three days for
San Juan Fernando Luis Ribas Dominicci
| Date | Time (ast) | Wind (mph) | Vis. (mi.) | Weather | Sky Cond. | Temperature (ºF) | Relative Humidity | Wind Chill (°F) | Heat Index (°F) | Pressure | Precipitation (in) | ||||||
|---|---|---|---|---|---|---|---|---|---|---|---|---|---|---|---|---|---|
| Air | Dwpt | 6 hour | altimeter (in) | sea level (mb) | 1 hr | 3 hr | 6 hr | ||||||||||
| Max. | Min. | ||||||||||||||||
| 02 | 18:45 | E 12 | 10.00 | Partly Cloudy | SCT030 SCT070 | 84.2 | 75.2 | 74% | 92 | 29.96 | 0.0 | ||||||
| 02 | 17:45 | E 14 | 10.00 | Partly Cloudy | SCT030 SCT070 | 86 | 77 | 75% | 97 | 29.96 | 0.0 | ||||||
| 02 | 16:45 | E 12 | 10.00 | Partly Cloudy | SCT030 SCT070 | 87.8 | 78.8 | 75% | 102 | 29.97 | 0.0 | ||||||
| 02 | 15:45 | E 12 | 10.00 | Partly Cloudy | SCT030 SCT070 | 87.8 | 77 | 70% | 100 | 29.97 | 0.0 | ||||||
| 02 | 14:45 | E 13 | 10.00 | Mostly Cloudy | SCT030 BKN070 | 87.8 | 75.2 | 66% | 98 | 29.98 | 0.0 | ||||||
| 02 | 13:45 | E 12 | 10.00 | Mostly Cloudy | SCT030 BKN070 | 87.8 | 77 | 70% | 100 | 29.98 | 0.0 | ||||||
| 02 | 12:45 | E 12 | 10.00 | Mostly Cloudy | SCT030 BKN070 | 87.8 | 77 | 70% | 100 | 30.01 | 0.0 | ||||||
| 02 | 11:45 | E 12 | 10.00 | Mostly Cloudy | SCT030 BKN070 | 87.8 | 75.2 | 66% | 98 | 30.02 | 0.0 | ||||||
| 02 | 10:45 | E 12 | 10.00 | Mostly Cloudy | SCT030 BKN070 | 84.2 | 77 | 79% | 94 | 30.04 | 0.0 | ||||||
| 02 | 09:45 | E 12 | 10.00 | Mostly Cloudy | SCT030 BKN070 | 84.2 | 77 | 79% | 94 | 30.05 | 0.0 | ||||||
| 02 | 08:45 | E 7 | 10.00 | Partly Cloudy | SCT030 SCT070 | 84.2 | 77 | 79% | 94 | 30.04 | 0.0 | ||||||
| 02 | 07:45 | Calm | 10.00 | Partly Cloudy | SCT030 SCT070 | 82.4 | 75.2 | 79% | 89 | 30.03 | 0.0 | ||||||
| 02 | 06:55 | Calm | 10.00 | Partly Cloudy | SCT030 | 80.6 | 75.2 | 84% | 86 | 30.02 | 0.0 | ||||||
| 01 | 18:45 | E 3 | 10.00 | Mostly Cloudy | SCT025 SCT040 BKN065 | 82.4 | 73.4 | 74% | 88 | 29.99 | 0.0 | ||||||
| 01 | 17:45 | S 8 | 10.00 | Showers Rain | SCT025 SCT040 BKN065 | 80.6 | 71.6 | 74% | 85 | 29.99 | 0.0 | ||||||
| 01 | 16:45 | E 14 G 21 | 10.00 | Showers Rain | SCT025 SCT040 BKN065 | 87.8 | 77 | 70% | 100 | 29.98 | 0.0 | ||||||
| 01 | 15:45 | E 10 | 10.00 | Mostly Cloudy | SCT040 BKN065 | 87.8 | 75.2 | 66% | 98 | 29.97 | 0.0 | ||||||
| 01 | 14:45 | E 14 | 10.00 | Mostly Cloudy | SCT030 BKN065 | 87.8 | 75.2 | 66% | 98 | 29.97 | 0.0 | ||||||
| 01 | 13:45 | E 20 G 25 | 10.00 | Showers Rain | SCT030 BKN065 | 87.8 | 75.2 | 66% | 98 | 29.98 | 0.0 | ||||||
| 01 | 12:45 | E 14 | 10.00 | Partly Cloudy | SCT030 | 87.8 | 77 | 70% | 100 | 30 | 0.0 | ||||||
| 01 | 11:45 | E 12 | 10.00 | Mostly Cloudy | SCT030 BKN075 | 87.8 | 75.2 | 66% | 98 | 30.02 | 0.0 | ||||||
| 01 | 10:45 | E 12 | 10.00 | Mostly Cloudy | SCT030 BKN075 | 86 | 75.2 | 70% | 95 | 30.04 | 0.0 | ||||||
| 01 | 09:50 | SE 12 | 10.00 | Mostly Cloudy | SCT030 BKN075 | 86 | 75.2 | 70% | 95 | 30.03 | 0.0 | ||||||
| 01 | 08:45 | E 9 | 10.00 | Mostly Cloudy | SCT030 BKN075 | 82.4 | 77 | 84% | 91 | 30.03 | 0.0 | ||||||
| 01 | 07:45 | Calm | 10.00 | Mostly Cloudy | FEW030 BKN075 | 78.8 | 73.4 | 84% | 82 | 30.01 | 0.0 | ||||||
| 01 | 06:45 | Calm | 10.00 | Mostly Cloudy | FEW030 BKN075 | 77 | 71.6 | 83% | 78 | 30 | 0.0 | ||||||
| 31 | 18:45 | S 6 | 8.00 | Mostly Cloudy | SCT030 BKN075 | 80.6 | 75.2 | 84% | 86 | 29.99 | 0.0 | ||||||
| 31 | 17:50 | S 3 | 8.00 | Mostly Cloudy | SCT030 BKN075 | 80.6 | 73.4 | 79% | 85 | 29.98 | 0.0 | ||||||
| 31 | 16:50 | S 7 | 8.00 | Rain | SCT020 SCT030 BKN060 | 80.6 | 73.4 | 79% | 85 | 29.98 | 0.0 | ||||||
| 31 | 15:45 | E 12 | 7.00 | Showers Rain | SCT020 SCT030 BKN055 | 80.6 | 77 | 89% | 87 | 29.98 | 0.0 | ||||||
| 31 | 14:45 | S 9 G 23 | 7.00 | Showers Rain | SCT015 SCT025 BKN055 | 82.4 | 75.2 | 79% | 89 | 29.97 | 0.0 | ||||||
| 31 | 13:45 | SE 7 G 18 | 10.00 | Mostly Cloudy | SCT030 BKN065 | 91.4 | 73.4 | 56% | 100 | 29.98 | 0.0 | ||||||
| 31 | 12:45 | S 15 | 10.00 | Mostly Cloudy | SCT030 BKN055 | 89.6 | 71.6 | 55% | 96 | 30 | 0.0 | ||||||
| 31 | 11:50 | S 12 | 10.00 | Mostly Cloudy | SCT030 BKN055 | 89.6 | 71.6 | 55% | 96 | 30.01 | 0.0 | ||||||
| 31 | 10:45 | SE 12 G 20 | 10.00 | Mostly Cloudy | SCT025 BKN070 | 89.6 | 73.4 | 59% | 98 | 30 | 0.0 | ||||||
| 31 | 09:45 | S 14 | 10.00 | Mostly Cloudy | SCT025 BKN070 | 86 | 73.4 | 66% | 93 | 29.99 | 0.0 | ||||||
| 31 | 08:45 | S 8 | 10.00 | Mostly Cloudy | SCT025 BKN070 | 84.2 | 75.2 | 74% | 92 | 29.98 | 0.0 | ||||||
| 31 | 07:45 | S 12 | 10.00 | Mostly Cloudy | SCT025 BKN070 | 82.4 | 73.4 | 74% | 88 | 29.97 | 0.0 | ||||||
| 31 | 06:45 | S 8 | 10.00 | Mostly Cloudy | SCT025 BKN070 | 82.4 | 73.4 | 74% | 88 | 29.95 | 0.0 | ||||||
| Date | Time (ast) | Wind (mph) | Vis. (mi.) | Weather | Sky Cond. | Air | Dwpt | Max. | Min. | Relative Humidity | Wind Chill (°F) | Heat Index (°F) | altimeter (in) | sea level (mb) | 1 hr | 3 hr | 6 hr |
| 6 hour | |||||||||||||||||
| Temperature (ºF) | Pressure | Precipitation (in) | |||||||||||||||